Time;durP1;ratioP1;P1;durP2;ratioP2;P2;SDS_P1;SDS_P2;PMS_P1;PMS_P2;Temp;Humidity;BMP_temperature;BMP_pressure;BME280_temperature;BME280_humidity;BME280_pressure;Samples;Min_cycle;Max_cycle;Signal;HPM_P1;HPM_P2
2022/04/20 00:00:48;;;;;;;10.67;3.30;;;;;;;5.64;69.81;91987.81;6217191;22;20180;-76
2022/04/20 00:03:15;;;;;;;2.77;2.50;;;;;;;5.13;69.84;91928.59;6217953;22;20454;-77
2022/04/20 00:05:42;;;;;;;3.13;2.93;;;;;;;5.24;70.21;91976.63;6216037;22;20563;-76
2022/04/20 00:08:11;;;;;;;2.10;2.00;;;;;;;5.44;70.86;91996.03;6216279;22;20153;-76
2022/04/20 00:10:39;;;;;;;2.73;2.40;;;;;;;5.32;70.73;91988.91;6216224;22;20410;-76
2022/04/20 00:13:06;;;;;;;2.00;1.90;;;;;;;5.47;70.43;92025.97;6216350;22;20163;-76
2022/04/20 00:15:33;;;;;;;2.03;1.93;;;;;;;5.49;70.53;92026.75;6217608;22;20505;-76
2022/04/20 00:18:01;;;;;;;3.07;2.80;;;;;;;5.42;70.43;92005.25;6216126;22;20446;-77
2022/04/20 00:20:29;;;;;;;2.10;2.00;;;;;;;5.25;70.33;91985.78;6216367;22;20525;-76
2022/04/20 00:22:56;;;;;;;2.23;2.13;;;;;;;5.68;69.77;92031.97;6216675;22;20574;-77
2022/04/20 00:25:25;;;;;;;5.00;3.97;;;;;;;5.89;69.83;92028.75;6215931;22;20581;-77
2022/04/20 00:27:52;;;;;;;6.03;3.37;;;;;;;5.96;69.23;92032.69;6216544;22;20552;-76
2022/04/20 00:30:19;;;;;;;1.97;1.87;;;;;;;5.37;68.73;91947.81;6216830;22;20412;-76
2022/04/20 00:32:47;;;;;;;2.80;2.60;;;;;;;5.95;67.90;92020.19;6216226;22;20555;-76
2022/04/20 00:35:14;;;;;;;1.90;1.80;;;;;;;5.78;67.87;92026.56;6216430;22;20585;-76
2022/04/20 00:37:42;;;;;;;1.60;1.60;;;;;;;5.79;68.13;92020.72;6216434;22;20596;-76
2022/04/20 00:40:11;;;;;;;2.60;2.10;;;;;;;5.84;68.47;92038.91;6215979;22;20415;-77
2022/04/20 00:42:41;;;;;;;1.63;1.63;;;;;;;5.95;69.42;92036.06;6216060;22;20392;-76
2022/04/20 00:45:11;;;;;;;2.30;2.20;;;;;;;5.43;69.45;91949.28;6215723;22;20567;-76
2022/04/20 00:47:39;;;;;;;2.07;1.97;;;;;;;5.81;69.18;92036.47;6215905;22;20451;-76
2022/04/20 00:50:08;;;;;;;3.53;2.00;;;;;;;5.21;69.48;91954.22;6215943;22;20388;-77
2022/04/20 00:52:35;;;;;;;2.10;2.00;;;;;;;5.12;69.02;91944.53;6215670;22;20226;-76
2022/04/20 00:55:03;;;;;;;1.50;1.50;;;;;;;5.69;69.14;92006.81;6215861;22;20516;-76
2022/04/20 00:57:30;;;;;;;2.30;2.20;;;;;;;5.62;68.26;91972.03;6215615;22;20391;-76
2022/04/20 01:00:02;;;;;;;1.70;1.60;;;;;;;6.07;68.67;92017.25;6216298;22;20229;-76
2022/04/20 01:02:32;;;;;;;1.20;1.13;;;;;;;5.67;69.46;91983.53;6217012;22;20232;-77
2022/04/20 01:04:59;;;;;;;1.67;1.60;;;;;;;5.43;69.34;91954.31;6216249;22;20538;-76
2022/04/20 01:07:26;;;;;;;1.63;1.57;;;;;;;5.78;68.65;91991.50;6217284;22;20507;-76
2022/04/20 01:09:54;;;;;;;2.67;1.90;;;;;;;6.16;68.35;92027.78;6215978;22;20181;-76
2022/04/20 01:12:21;;;;;;;1.80;1.70;;;;;;;5.81;68.71;91995.56;6217181;22;20460;-76
2022/04/20 01:14:48;;;;;;;3.97;3.70;;;;;;;6.14;68.26;92011.16;6215920;22;20536;-77
2022/04/20 01:17:17;;;;;;;3.33;3.07;;;;;;;6.32;68.02;92033.03;6215917;22;20165;-76
2022/04/20 01:19:44;;;;;;;4.20;4.00;;;;;;;6.23;68.37;92015.84;6216223;22;20191;-76
2022/04/20 01:22:13;;;;;;;3.37;3.07;;;;;;;6.22;68.70;91991.63;6215288;22;20165;-76
2022/04/20 01:24:41;;;;;;;3.20;3.10;;;;;;;6.30;68.68;92014.75;6215371;22;20157;-76
2022/04/20 01:27:09;;;;;;;3.93;2.73;;;;;;;5.56;69.37;91925.47;6215848;22;20632;-76
2022/04/20 01:29:38;;;;;;;2.30;2.20;;;;;;;5.82;69.31;91982.16;6217421;22;20414;-76
2022/04/20 01:32:06;;;;;;;2.40;2.30;;;;;;;5.97;69.57;92015.97;6215384;22;20415;-76
2022/04/20 01:34:33;;;;;;;1.97;1.87;;;;;;;5.23;68.93;91912.44;6215997;22;20585;-76
2022/04/20 01:37:01;;;;;;;1.93;1.90;;;;;;;5.73;69.25;91985.00;6215393;22;20535;-76
2022/04/20 01:39:29;;;;;;;2.23;2.13;;;;;;;5.64;68.94;91951.06;6215327;22;20526;-76
2022/04/20 01:41:57;;;;;;;2.50;2.40;;;;;;;5.96;68.91;92012.63;6215855;22;20602;-76
2022/04/20 01:44:24;;;;;;;3.03;2.83;;;;;;;5.96;67.92;91991.75;6215397;22;20180;-76
2022/04/20 01:46:51;;;;;;;4.43;3.63;;;;;;;5.99;67.93;92011.69;6215319;22;20442;-76
2022/04/20 01:49:18;;;;;;;4.73;4.33;;;;;;;5.42;68.37;91942.66;6215281;22;20399;-76
2022/04/20 01:51:50;;;;;;;4.03;3.70;;;;;;;5.55;69.42;91976.44;6216393;22;20498;-76
2022/04/20 01:54:18;;;;;;;3.20;3.10;;;;;;;5.44;67.84;91955.94;6215469;22;20505;-76
2022/04/20 01:56:47;;;;;;;4.87;3.17;;;;;;;5.96;67.52;92029.34;6215751;22;20539;-76
2022/04/20 01:59:15;;;;;;;3.20;3.00;;;;;;;5.67;68.48;92006.09;6215792;22;20523;-76
2022/04/20 02:04:26;;;;;;;4.93;4.63;;;;;;;5.46;68.39;91963.41;6218178;22;20390;-76
2022/04/20 02:06:54;;;;;;;9.93;4.30;;;;;;;5.51;67.89;91984.94;6217647;22;20407;-77
2022/04/20 02:09:21;;;;;;;4.23;3.83;;;;;;;5.57;68.13;91996.44;6217646;22;20430;-76
2022/04/20 02:11:50;;;;;;;3.50;3.20;;;;;;;5.68;69.10;91996.88;6218212;22;20607;-76
2022/04/20 02:14:17;;;;;;;3.40;3.10;;;;;;;5.10;69.43;91932.91;6217669;22;20196;-76
2022/04/20 02:16:45;;;;;;;2.57;2.47;;;;;;;4.77;71.06;91934.81;6217455;22;20520;-76
2022/04/20 02:19:12;;;;;;;6.07;2.63;;;;;;;5.26;71.39;92014.16;6217657;22;20594;-76
2022/04/20 02:21:39;;;;;;;4.23;3.93;;;;;;;4.88;71.26;91975.34;6217853;22;20177;-76
2022/04/20 02:24:06;;;;;;;5.73;5.43;;;;;;;4.91;71.33;91966.03;6217247;22;20442;-76
2022/04/20 02:26:34;;;;;;;4.87;4.33;;;;;;;5.14;71.52;92025.38;6216976;22;20202;-76
2022/04/20 02:29:03;;;;;;;6.43;4.93;;;;;;;4.70;71.54;91953.41;6217086;22;20554;-76
2022/04/20 02:31:30;;;;;;;6.17;3.70;;;;;;;4.70;72.10;92014.25;6217117;22;20508;-76
2022/04/20 02:33:57;;;;;;;1.80;1.70;;;;;;;4.82;71.75;91998.06;6217469;22;20604;-76
2022/04/20 02:36:24;;;;;;;2.07;2.07;;;;;;;5.07;71.06;92025.63;6217135;22;20586;-76
2022/04/20 02:38:52;;;;;;;1.63;1.63;;;;;;;4.91;70.92;91978.56;6217264;22;20179;-76
2022/04/20 02:41:19;;;;;;;2.97;2.77;;;;;;;5.25;70.49;92020.03;6217311;22;20156;-76
2022/04/20 02:43:47;;;;;;;1.90;1.80;;;;;;;5.30;69.17;92015.69;6217311;22;20509;-76
2022/04/20 02:46:15;;;;;;;2.50;2.30;;;;;;;5.42;70.17;92010.28;6217408;22;20186;-76
2022/04/20 02:48:43;;;;;;;3.73;3.40;;;;;;;5.29;70.43;92024.09;6216933;22;20195;-76
2022/04/20 02:51:10;;;;;;;3.03;2.73;;;;;;;5.14;70.85;92004.53;6217378;22;20388;-77
2022/04/20 02:53:38;;;;;;;6.50;4.00;;;;;;;5.37;70.49;92019.63;6216854;22;20153;-76
2022/04/20 02:56:05;;;;;;;3.37;3.27;;;;;;;5.44;70.60;92016.06;6217094;22;20465;-76
2022/04/20 02:58:33;;;;;;;2.67;2.57;;;;;;;5.41;69.60;92021.16;6217972;22;20401;-76
2022/04/20 03:01:00;;;;;;;3.83;3.50;;;;;;;5.21;69.67;91995.97;6216993;22;20195;-77
2022/04/20 03:03:29;;;;;;;5.10;4.77;;;;;;;4.75;70.49;91932.38;6216550;22;20593;-76
2022/04/20 03:05:56;;;;;;;3.90;3.00;;;;;;;4.50;71.52;91929.03;6217080;22;20510;-76
2022/04/20 03:08:24;;;;;;;3.70;3.40;;;;;;;4.96;71.41;92018.44;6216623;22;20539;-77
2022/04/20 03:10:52;;;;;;;4.73;3.73;;;;;;;4.81;71.30;91998.91;6217099;22;20621;-76
2022/04/20 03:13:20;;;;;;;5.67;4.87;;;;;;;4.53;71.68;91978.94;6216795;22;20523;-76
2022/04/20 03:15:47;;;;;;;4.33;4.07;;;;;;;4.31;72.51;91982.94;6217129;22;20469;-76
2022/04/20 03:18:15;;;;;;;4.13;3.87;;;;;;;4.62;71.81;92000.34;6217081;22;20387;-76
2022/04/20 03:20:44;;;;;;;3.00;2.90;;;;;;;4.78;72.00;92014.84;6216751;22;20182;-76
2022/04/20 03:23:14;;;;;;;6.23;3.00;;;;;;;4.62;72.70;92027.88;6217043;22;20478;-76
2022/04/20 03:25:41;;;;;;;3.23;3.13;;;;;;;4.74;72.46;92018.28;6216711;22;20586;-76
2022/04/20 03:28:09;;;;;;;3.93;3.73;;;;;;;4.69;72.51;92026.81;6216972;22;20410;-77
2022/04/20 03:30:39;;;;;;;2.63;2.47;;;;;;;4.81;71.40;91989.72;6217006;22;20556;-77
2022/04/20 03:33:08;;;;;;;3.53;3.30;;;;;;;4.47;71.04;91941.59;6218248;22;20165;-76
2022/04/20 03:35:38;;;;;;;3.80;3.67;;;;;;;4.80;70.74;91998.09;6217098;22;20641;-76
2022/04/20 03:38:07;;;;;;;4.53;4.13;;;;;;;4.94;70.71;92018.50;6216400;22;20481;-76
2022/04/20 03:40:35;;;;;;;3.57;3.37;;;;;;;4.92;70.81;92029.41;6218440;22;20411;-75
2022/04/20 03:43:03;;;;;;;5.30;3.63;;;;;;;4.58;70.80;91977.94;6216260;22;20233;-76
2022/04/20 03:45:30;;;;;;;4.93;4.53;;;;;;;4.39;70.78;91936.03;6216503;22;20501;-76
2022/04/20 03:47:58;;;;;;;9.83;5.93;;;;;;;4.49;71.14;91957.38;6216297;22;20469;-76
2022/04/20 03:50:25;;;;;;;6.93;5.53;;;;;;;4.85;71.60;92026.28;6216343;22;20555;-75
2022/04/20 03:52:52;;;;;;;9.03;7.67;;;;;;;4.96;71.42;92024.25;6216868;22;20463;-75
2022/04/20 03:55:21;;;;;;;7.20;6.40;;;;;;;4.51;71.55;91946.47;6216824;22;20517;-77
2022/04/20 03:57:48;;;;;;;18.53;9.43;;;;;;;4.85;72.13;92033.78;6216425;22;20510;-76
2022/04/20 04:00:16;;;;;;;8.50;7.20;;;;;;;4.66;71.63;91961.88;6216229;22;20548;-76
2022/04/20 04:02:43;;;;;;;10.97;7.87;;;;;;;5.16;70.84;92030.34;6216946;22;20388;-76
2022/04/20 04:05:10;;;;;;;9.50;7.77;;;;;;;5.14;71.06;92029.56;6216024;22;20440;-76
2022/04/20 04:07:38;;;;;;;4.93;4.57;;;;;;;5.12;71.41;92034.63;6216107;22;20563;-76
2022/04/20 04:10:07;;;;;;;5.40;4.90;;;;;;;5.16;70.25;91978.59;6216013;22;20445;-76
2022/04/20 04:12:36;;;;;;;7.53;5.37;;;;;;;5.27;70.83;92001.59;6216378;22;20549;-76
2022/04/20 04:15:05;;;;;;;5.83;5.43;;;;;;;5.53;70.09;92029.94;6216586;22;20525;-77
2022/04/20 04:17:33;;;;;;;7.43;5.43;;;;;;;5.39;69.68;91993.69;6216083;22;20505;-76
2022/04/20 04:20:00;;;;;;;3.63;3.47;;;;;;;5.32;69.55;91983.91;6215603;22;20483;-74
2022/04/20 04:22:28;;;;;;;4.07;3.87;;;;;;;5.26;70.16;91951.56;6215457;22;20479;-75
2022/04/20 04:24:56;;;;;;;5.23;4.90;;;;;;;5.68;69.04;92014.41;6215062;22;20404;-77
2022/04/20 04:27:23;;;;;;;4.43;4.13;;;;;;;5.96;68.17;92037.69;6215638;22;20263;-76
2022/04/20 04:29:52;;;;;;;3.87;3.57;;;;;;;5.51;68.02;91957.38;6216222;22;20232;-74
2022/04/20 04:32:25;;;;;;;8.37;5.60;;;;;;;6.02;68.37;92034.16;6215730;22;20447;-73
2022/04/20 04:34:52;;;;;;;11.73;10.27;;;;;;;5.91;68.35;92034.53;6215023;22;20447;-73
2022/04/20 04:37:20;;;;;;;3.67;3.43;;;;;;;5.67;68.50;92003.56;6216013;22;20227;-72
2022/04/20 04:39:47;;;;;;;3.07;2.87;;;;;;;5.68;68.69;92009.41;6215426;22;20541;-73
2022/04/20 04:42:14;;;;;;;4.40;4.20;;;;;;;5.94;68.91;92016.88;6215980;22;20391;-73
2022/04/20 04:44:41;;;;;;;6.87;6.30;;;;;;;5.92;68.67;92005.25;6215964;22;20443;-73
2022/04/20 04:49:55;;;;;;;12.90;7.57;;;;;;;6.07;68.67;92000.53;6188278;22;20592;-72
2022/04/20 04:52:22;;;;;;;5.07;4.73;;;;;;;5.90;68.78;91987.78;6214753;22;20416;-74
2022/04/20 04:54:49;;;;;;;5.57;5.13;;;;;;;6.22;69.12;92015.00;6213335;22;20590;-74
2022/04/20 04:57:16;;;;;;;43.20;16.63;;;;;;;6.39;68.98;92026.13;6215377;22;20513;-74
2022/04/20 04:59:44;;;;;;;32.97;16.37;;;;;;;6.49;68.82;92017.38;6215446;22;20533;-76
2022/04/20 05:02:13;;;;;;;41.20;17.73;;;;;;;6.69;68.70;92012.44;6214846;22;20600;-75
2022/04/20 05:04:41;;;;;;;32.37;16.47;;;;;;;6.78;68.95;92019.63;6215361;22;20415;-75
2022/04/20 05:07:09;;;;;;;12.50;10.47;;;;;;;6.75;68.88;91998.84;6215186;22;20467;-75
2022/04/20 05:09:36;;;;;;;15.97;9.43;;;;;;;6.99;68.68;92015.47;6212895;22;20192;-74
2022/04/20 05:12:04;;;;;;;19.40;11.50;;;;;;;7.14;68.12;92019.91;6211937;22;20480;-75
2022/04/20 05:14:32;;;;;;;6.50;6.20;;;;;;;6.87;68.09;92020.97;6214617;22;20365;-75
2022/04/20 05:17:06;;;;;;;6.80;6.20;;;;;;;6.80;69.12;92012.84;6214945;22;20229;-77
2022/04/20 05:19:35;;;;;;;5.87;5.47;;;;;;;6.90;68.49;92010.81;6217110;22;20274;-76
2022/04/20 05:22:02;;;;;;;7.33;5.93;;;;;;;7.06;67.98;92009.31;6215043;22;20467;-77
2022/04/20 05:24:30;;;;;;;7.33;6.60;;;;;;;7.25;67.63;92006.91;6214979;22;20154;-78
2022/04/20 05:26:57;;;;;;;5.33;4.70;;;;;;;7.18;67.20;92020.59;6213729;22;20574;-77
2022/04/20 05:29:25;;;;;;;30.07;14.53;;;;;;;7.16;65.21;91992.19;6215819;22;20154;-77
2022/04/20 05:31:55;;;;;;;20.57;12.60;;;;;;;7.31;65.94;91974.00;6214885;22;20176;-77
2022/04/20 05:34:23;;;;;;;8.27;7.57;;;;;;;7.81;64.81;92029.72;6214975;22;20499;-76
2022/04/20 05:42:21;;;;;;;9.17;7.83;;;;;;;8.26;64.44;92020.22;6214566;22;20530;-77
2022/04/20 05:44:48;;;;;;;9.10;8.27;;;;;;;8.29;64.32;92010.00;6215666;22;20533;-76
2022/04/20 05:47:15;;;;;;;17.00;10.63;;;;;;;8.41;62.86;91997.78;6214623;22;20251;-76
2022/04/20 05:49:43;;;;;;;115.73;39.53;;;;;;;8.17;63.05;91945.13;6215025;22;20533;-77
2022/04/20 05:52:12;;;;;;;35.80;14.87;;;;;;;8.34;62.71;91938.59;6214027;22;20553;-76
2022/04/20 05:54:39;;;;;;;15.60;9.87;;;;;;;8.45;62.41;91951.50;6213645;22;20236;-75
2022/04/20 05:57:07;;;;;;;4.67;4.23;;;;;;;8.62;60.57;91981.72;6214065;22;20510;-76
2022/04/20 05:59:34;;;;;;;3.70;3.40;;;;;;;8.83;60.05;92008.47;6214824;22;20553;-77
2022/04/20 06:02:01;;;;;;;3.50;3.00;;;;;;;9.12;60.26;92012.97;6214495;22;20176;-76
2022/04/20 06:04:30;;;;;;;5.60;5.10;;;;;;;9.40;59.63;92014.19;6214524;22;20154;-77
2022/04/20 06:06:57;;;;;;;22.40;8.00;;;;;;;9.41;59.22;92010.75;6214053;22;20582;-77
2022/04/20 06:09:26;;;;;;;13.70;8.30;;;;;;;9.64;58.31;92020.53;6214675;22;20612;-77
2022/04/20 06:11:53;;;;;;;11.80;7.97;;;;;;;9.39;59.03;91985.63;6214367;22;20491;-77
2022/04/20 06:14:20;;;;;;;9.47;7.43;;;;;;;9.67;58.89;92004.47;6214503;22;20573;-77
2022/04/20 06:16:48;;;;;;;6.33;5.80;;;;;;;9.39;58.94;91950.34;6214182;22;20391;-77
2022/04/20 06:19:16;;;;;;;13.23;7.97;;;;;;;9.83;58.19;92011.19;6214238;22;20531;-75
2022/04/20 06:21:43;;;;;;;7.57;6.07;;;;;;;9.49;58.47;91978.44;6213415;22;20181;-76
2022/04/20 06:24:10;;;;;;;5.77;5.37;;;;;;;9.19;58.73;91934.53;6214024;22;20150;-75
2022/04/20 06:26:39;;;;;;;15.87;7.80;;;;;;;9.51;58.55;92002.69;6214697;22;20412;-77
2022/04/20 06:29:07;;;;;;;6.57;5.70;;;;;;;9.63;59.55;92002.97;6213427;22;20531;-77
2022/04/20 06:31:35;;;;;;;51.47;27.00;;;;;;;9.65;59.94;91989.38;6214308;22;20397;-75
2022/04/20 06:34:02;;;;;;;9.67;8.70;;;;;;;9.72;59.96;91990.72;6216631;22;20590;-76
2022/04/20 06:36:29;;;;;;;14.33;7.00;;;;;;;9.85;59.66;91998.50;6213902;22;20510;-77
2022/04/20 06:39:06;;;;;;;25.27;14.60;;;;;;;9.77;58.77;91980.41;6215342;22;20381;-77
2022/04/20 06:41:34;;;;;;;4.97;4.57;;;;;;;9.08;58.54;91907.34;6212883;22;20240;-78
2022/04/20 06:44:04;;;;;;;4.47;4.13;;;;;;;9.60;58.82;91914.84;6212139;22;20558;-76
2022/04/20 06:46:31;;;;;;;5.07;4.60;;;;;;;9.30;59.75;91925.56;6213101;22;20411;-76
2022/04/20 06:49:00;;;;;;;9.60;6.53;;;;;;;9.61;59.44;91954.31;6213853;22;20443;-76
2022/04/20 06:58:31;;;;;;;6.70;6.10;;;;;;;10.03;60.45;91969.81;6212452;22;20616;-77
2022/04/20 06:59:44;;;;;;;4.70;4.30;;;;;;;10.52;58.93;91985.00;6209345;22;20455;-77
2022/04/20 07:02:12;;;;;;;19.00;5.20;;;;;;;10.56;57.14;91958.66;6213269;22;20158;-75
2022/04/20 07:04:42;;;;;;;6.47;5.90;;;;;;;11.38;54.52;91967.59;6216201;22;20525;-78
2022/04/20 07:07:10;;;;;;;13.93;8.83;;;;;;;11.06;55.07;91935.69;6216748;22;20568;-76
2022/04/20 07:09:37;;;;;;;17.20;10.73;;;;;;;11.18;55.42;91927.44;6214872;22;20165;-77
2022/04/20 07:12:05;;;;;;;9.00;6.37;;;;;;;11.59;55.79;92001.81;6215004;22;20539;-75
2022/04/20 07:14:32;;;;;;;9.13;7.57;;;;;;;11.60;55.50;91988.25;6216044;22;20375;-77
2022/04/20 07:17:02;;;;;;;7.57;7.07;;;;;;;11.73;54.87;92005.25;6216395;22;20215;-77
2022/04/20 07:19:29;;;;;;;7.80;7.10;;;;;;;11.73;54.58;92008.63;6216513;22;20507;-78
2022/04/20 07:21:57;;;;;;;7.40;6.70;;;;;;;11.43;55.26;91993.47;6215582;22;20562;-78
2022/04/20 07:24:24;;;;;;;13.87;9.17;;;;;;;11.49;54.56;91975.38;6217755;22;20451;-78
2022/04/20 07:26:51;;;;;;;7.63;6.97;;;;;;;11.66;55.15;91991.34;6216212;22;20264;-76
2022/04/20 07:29:24;;;;;;;8.37;7.47;;;;;;;11.57;55.37;91929.44;6216006;22;20425;-79
2022/04/20 07:31:51;;;;;;;11.53;6.80;;;;;;;11.63;54.65;91964.50;6215937;22;20253;-76
2022/04/20 07:34:22;;;;;;;25.00;7.83;;;;;;;12.09;54.04;91966.94;6215976;22;20553;-79
2022/04/20 07:36:52;;;;;;;7.83;7.10;;;;;;;12.70;52.81;91980.09;6215618;22;20403;-77
2022/04/20 07:39:19;;;;;;;8.13;7.30;;;;;;;12.39;52.92;91976.03;6216905;22;20385;-77
2022/04/20 07:41:46;;;;;;;11.30;9.17;;;;;;;12.34;52.40;91964.56;6215063;22;20541;-78
2022/04/20 07:44:15;;;;;;;11.07;7.37;;;;;;;12.22;52.14;91960.25;6213395;22;20175;-77
2022/04/20 07:46:52;;;;;;;9.87;6.30;;;;;;;12.80;52.14;92008.22;6214782;22;20534;-78
2022/04/20 07:52:07;;;;;;;10.27;7.47;;;;;;;12.82;52.45;91996.25;6215298;22;20542;-78
2022/04/20 07:54:36;;;;;;;26.17;12.50;;;;;;;12.44;53.75;91998.59;6215222;22;20209;-77
2022/04/20 07:57:11;;;;;;;20.43;9.53;;;;;;;12.42;53.26;91969.97;6215986;22;20526;-78
2022/04/20 07:59:39;;;;;;;10.93;8.33;;;;;;;12.51;53.05;91963.53;6215522;22;20157;-78
2022/04/20 08:02:11;;;;;;;10.27;8.33;;;;;;;12.58;53.17;91904.81;6215367;22;20184;-79
2022/04/20 08:04:43;;;;;;;17.27;10.30;;;;;;;12.84;54.23;91980.03;6216310;22;20507;-76
2022/04/20 08:07:10;;;;;;;8.60;6.20;;;;;;;12.02;55.50;91905.72;6216437;22;20150;-77
2022/04/20 08:09:37;;;;;;;7.47;5.93;;;;;;;12.51;55.67;91966.06;6216024;22;20534;-77
2022/04/20 08:12:06;;;;;;;5.17;4.77;;;;;;;12.50;56.93;91959.41;6215122;22;20589;-76
2022/04/20 08:14:34;;;;;;;33.67;20.43;;;;;;;12.40;57.58;91951.53;6215027;22;20527;-76
2022/04/20 08:17:01;;;;;;;18.80;11.87;;;;;;;11.72;58.42;91851.84;6216275;22;20442;-76
2022/04/20 08:19:28;;;;;;;12.80;9.57;;;;;;;12.26;58.75;91931.28;6215006;22;20493;-76
2022/04/20 08:21:58;;;;;;;10.87;9.03;;;;;;;12.57;58.51;91951.31;6215422;22;20150;-74
2022/04/20 08:24:25;;;;;;;9.50;8.53;;;;;;;11.98;59.70;91881.50;6214996;22;20605;-75
2022/04/20 08:26:53;;;;;;;6.40;5.70;;;;;;;12.27;58.13;91968.38;6215536;22;20590;-75
2022/04/20 08:29:20;;;;;;;6.73;6.03;;;;;;;12.08;58.58;91945.03;6214021;22;20422;-76
2022/04/20 08:31:48;;;;;;;13.07;7.90;;;;;;;11.56;60.96;91889.84;6214587;22;20531;-76
2022/04/20 08:34:15;;;;;;;6.23;5.73;;;;;;;11.75;61.50;91920.00;6214715;22;20415;-78
2022/04/20 08:36:42;;;;;;;7.60;6.87;;;;;;;11.44;63.02;91861.03;6212991;22;20533;-77
2022/04/20 08:39:11;;;;;;;8.02;7.32;;;;;;;11.66;61.12;91925.56;6214441;22;20779;-77
2022/04/20 08:41:38;;;;;;;8.20;7.33;;;;;;;11.58;61.04;91909.09;6215650;22;20542;-77
2022/04/20 08:44:10;;;;;;;8.20;7.43;;;;;;;11.75;63.42;91908.16;6213789;22;20604;-77
2022/04/20 08:46:40;;;;;;;9.23;7.13;;;;;;;11.46;62.71;91874.41;6215091;22;20515;-77
2022/04/20 08:49:08;;;;;;;7.67;7.07;;;;;;;11.35;61.83;91886.84;6215032;22;20181;-77
2022/04/20 08:54:19;;;;;;;7.50;6.33;;;;;;;11.84;62.42;91916.91;6214241;22;20507;-77
2022/04/20 08:59:36;;;;;;;21.77;13.23;;;;;;;11.74;61.77;91921.72;6213263;22;20513;-76
2022/04/20 09:02:04;;;;;;;23.33;10.17;;;;;;;12.04;62.69;91916.56;6213026;22;20161;-78
2022/04/20 09:04:31;;;;;;;7.57;6.73;;;;;;;11.93;61.10;91891.09;6215378;22;20608;-77
2022/04/20 09:06:59;;;;;;;14.03;9.63;;;;;;;12.57;59.25;91935.31;6214710;22;20531;-76
2022/04/20 09:09:30;;;;;;;16.70;7.73;;;;;;;12.60;59.68;91890.34;6213995;22;20481;-77
2022/04/20 09:11:59;;;;;;;5.10;4.63;;;;;;;12.86;59.08;91919.13;6213314;22;20565;-77
2022/04/20 09:14:27;;;;;;;12.60;9.97;;;;;;;12.70;57.28;91880.44;6213291;22;20463;-77
2022/04/20 09:16:55;;;;;;;6.03;4.67;;;;;;;12.63;57.33;91918.00;6216087;22;20444;-77
2022/04/20 09:19:25;;;;;;;8.57;5.53;;;;;;;12.68;56.58;91875.44;6214992;22;20219;-77
2022/04/20 09:21:52;;;;;;;8.20;6.27;;;;;;;13.13;56.82;91947.03;6214759;22;20535;-78
2022/04/20 09:24:20;;;;;;;9.10;6.03;;;;;;;12.63;57.06;91857.19;6215317;22;20609;-78
2022/04/20 09:26:53;;;;;;;5.60;5.10;;;;;;;12.80;56.81;91901.75;6215076;22;20545;-78
2022/04/20 09:29:21;;;;;;;3.87;3.50;;;;;;;12.56;56.58;91899.03;6214833;22;20627;-78
2022/04/20 09:31:51;;;;;;;5.07;4.67;;;;;;;12.94;56.51;91934.66;6215374;22;20154;-78
2022/04/20 09:34:55;;;;;;;5.70;5.30;;;;;;;13.50;56.91;91920.13;6215371;22;20457;-79
2022/04/20 09:37:22;;;;;;;7.20;4.70;;;;;;;13.38;55.94;91915.84;6200388;22;20462;-77
2022/04/20 09:39:51;;;;;;;6.00;4.93;;;;;;;13.38;54.96;91916.66;6216115;22;20431;-76
2022/04/20 09:42:20;;;;;;;8.40;7.13;;;;;;;14.24;54.10;91915.16;6215107;22;20444;-77
2022/04/20 09:44:55;;;;;;;5.63;5.23;;;;;;;14.01;55.90;91896.38;6215415;22;20378;-77
2022/04/20 09:50:09;;;;;;;7.00;6.37;;;;;;;15.78;51.90;91915.25;6215441;22;20169;-77
2022/04/20 09:52:41;;;;;;;6.10;5.57;;;;;;;13.92;55.38;91884.28;6214885;22;20468;-77
2022/04/20 09:55:12;;;;;;;7.10;6.37;;;;;;;15.24;52.59;91889.50;6215670;22;20260;-75
2022/04/20 09:57:42;;;;;;;21.13;11.30;;;;;;;11.88;60.93;91845.81;6215630;22;20220;-77
2022/04/20 10:00:11;;;;;;;35.93;13.27;;;;;;;12.73;60.55;91863.31;6214619;22;20543;-77
2022/04/20 10:02:39;;;;;;;61.60;21.10;;;;;;;13.51;57.03;91833.75;6214905;22;20545;-77
2022/04/20 10:05:07;;;;;;;20.50;10.33;;;;;;;14.14;54.23;91834.59;6214645;22;20599;-77
2022/04/20 10:07:37;;;;;;;18.07;10.97;;;;;;;14.85;53.70;91900.78;6215613;22;20527;-79
2022/04/20 10:10:05;;;;;;;14.90;8.97;;;;;;;14.42;53.53;91882.63;6214739;22;20154;-78
2022/04/20 10:12:33;;;;;;;42.63;17.70;;;;;;;14.41;53.71;91865.75;6215326;22;20602;-78
2022/04/20 10:17:50;;;;;;;231.90;65.10;;;;;;;14.14;55.18;91865.88;6215101;22;20511;-77
2022/04/20 10:20:19;;;;;;;66.57;21.47;;;;;;;13.90;54.39;91837.91;6213213;22;20383;-78
2022/04/20 10:22:47;;;;;;;10.53;8.83;;;;;;;13.94;54.16;91841.03;6214423;22;20401;-78
2022/04/20 10:25:15;;;;;;;5.57;5.10;;;;;;;13.61;53.61;91836.50;6216860;22;20440;-73
2022/04/20 10:28:03;;;;;;;8.50;7.00;;;;;;;14.06;53.36;91861.34;6216726;22;20527;-77
2022/04/20 10:30:44;;;;;;;32.63;19.37;;;;;;;13.93;54.74;91855.44;6216843;22;20561;-76
2022/04/20 10:33:16;;;;;;;7.17;6.67;;;;;;;13.68;55.77;91836.00;6216354;22;20467;-73
2022/04/20 10:35:56;;;;;;;10.50;6.60;;;;;;;14.15;55.10;91853.97;6216076;22;20224;-75
2022/04/20 10:38:29;;;;;;;8.93;5.63;;;;;;;13.77;56.07;91837.09;6216453;22;20519;-76
2022/04/20 10:40:59;;;;;;;6.97;6.47;;;;;;;13.84;55.65;91817.19;6214914;22;20519;-74
2022/04/20 10:43:27;;;;;;;5.77;5.47;;;;;;;13.68;56.74;91840.25;6217031;22;20605;-73
2022/04/20 10:46:08;;;;;;;10.13;9.17;;;;;;;14.08;55.87;91839.16;6216233;22;20428;-74
2022/04/20 10:48:49;;;;;;;8.17;5.77;;;;;;;13.83;57.88;91826.53;6216754;22;20390;-73
2022/04/20 10:51:18;;;;;;;10.97;8.20;;;;;;;13.65;59.21;91818.41;6214579;22;20474;-74
2022/04/20 10:53:48;;;;;;;11.87;10.67;;;;;;;13.64;58.48;91819.31;6216506;22;20154;-75
2022/04/20 10:56:17;;;;;;;9.53;8.63;;;;;;;13.76;58.13;91807.53;6217498;22;20534;-75
2022/04/20 10:59:10;;;;;;;11.93;9.37;;;;;;;13.48;57.19;91762.09;6216787;22;20594;-75
2022/04/20 11:02:15;;;;;;;9.37;5.40;;;;;;;14.03;57.08;91805.66;6214191;22;20621;-76
2022/04/20 11:04:46;;;;;;;14.50;10.20;;;;;;;13.91;57.00;91810.78;6215441;22;20488;-76
2022/04/20 11:07:22;;;;;;;8.53;7.80;;;;;;;13.72;57.22;91802.78;6217397;22;20477;-76
2022/04/20 11:09:56;;;;;;;8.37;7.53;;;;;;;13.26;59.04;91793.97;6217378;22;20181;-76
2022/04/20 11:18:45;;;;;;;43.80;15.07;;;;;;;13.34;60.00;91783.31;6216364;22;20485;-74
2022/04/20 11:21:19;;;;;;;9.90;7.00;;;;;;;13.53;59.04;91765.94;6216169;22;20416;-75
2022/04/20 11:23:55;;;;;;;25.87;11.40;;;;;;;13.83;58.41;91764.78;6216677;22;20474;-75
2022/04/20 11:26:25;;;;;;;25.43;10.50;;;;;;;13.80;58.31;91762.47;6217501;22;20542;-73
2022/04/20 11:28:53;;;;;;;37.97;15.73;;;;;;;13.89;58.62;91741.50;6215991;22;20558;-73
2022/04/20 11:31:20;;;;;;;55.77;22.93;;;;;;;13.99;57.74;91739.94;6214976;22;20563;-73
2022/04/20 11:33:51;;;;;;;14.57;7.57;;;;;;;14.13;57.06;91739.81;6215348;22;20400;-73
2022/04/20 11:36:18;;;;;;;20.00;12.27;;;;;;;14.05;57.88;91734.44;6214395;22;20554;-72
2022/04/20 11:38:46;;;;;;;6.37;5.60;;;;;;;14.25;56.54;91740.69;6216300;22;20515;-73
2022/04/20 11:41:16;;;;;;;7.90;6.70;;;;;;;14.37;56.54;91739.81;6216742;22;20390;-73
2022/04/20 11:43:45;;;;;;;6.50;5.87;;;;;;;14.02;57.81;91721.97;6215961;22;20197;-73
2022/04/20 11:46:13;;;;;;;6.30;5.70;;;;;;;13.88;57.35;91712.75;6216133;22;20592;-73
2022/04/20 11:48:51;;;;;;;9.43;5.80;;;;;;;14.16;56.31;91729.41;6215951;22;20581;-73
2022/04/20 11:51:23;;;;;;;7.70;6.03;;;;;;;14.34;56.16;91717.16;6215954;22;20214;-73
2022/04/20 11:53:50;;;;;;;6.60;5.80;;;;;;;13.97;56.51;91691.00;6215799;22;20508;-73
2022/04/20 11:56:18;;;;;;;11.13;5.63;;;;;;;13.75;56.76;91668.00;6215587;22;20588;-74
2022/04/20 11:58:53;;;;;;;5.83;5.23;;;;;;;14.47;56.32;91712.84;6215758;22;20532;-76
2022/04/20 12:01:41;;;;;;;5.57;5.03;;;;;;;14.89;56.04;91691.91;6214956;22;20405;-76
2022/04/20 12:04:19;;;;;;;14.60;8.30;;;;;;;14.47;54.11;91636.59;6218583;22;20641;-77
2022/04/20 12:06:52;;;;;;;8.07;7.30;;;;;;;14.89;54.39;91674.13;6218717;22;20441;-78
2022/04/20 12:09:30;;;;;;;9.37;7.23;;;;;;;14.97;53.34;91653.22;6218375;22;20589;-78
2022/04/20 12:12:01;;;;;;;14.50;9.07;;;;;;;15.44;54.50;91676.78;6218902;22;20723;-79
2022/04/20 12:14:30;;;;;;;5.53;4.00;;;;;;;15.48;49.87;91652.72;6217987;22;20474;-77
2022/04/20 12:17:02;;;;;;;41.17;12.50;;;;;;;15.58;50.32;91635.84;6217433;22;20154;-78
2022/04/20 12:19:32;;;;;;;4.30;3.97;;;;;;;15.74;47.84;91688.00;6216960;22;20435;-77